createdAt,value
2023-02-25T00:00:19.857Z,5.79
2023-02-25T00:02:54.256Z,5.82
2023-02-25T00:05:28.277Z,5.81
2023-02-25T00:08:02.225Z,5.79
2023-02-25T00:10:35.354Z,5.81
2023-02-25T00:13:18.063Z,5.81
2023-02-25T00:15:50.976Z,5.80
2023-02-25T00:18:26.577Z,5.79
2023-02-25T00:20:59.736Z,5.80
2023-02-25T00:23:33.120Z,5.81
2023-02-25T00:26:07.205Z,5.85
2023-02-25T00:28:40.915Z,5.89
2023-02-25T00:31:15.831Z,5.92
2023-02-25T00:33:50.622Z,5.90
2023-02-25T00:36:25.509Z,5.92
2023-02-25T00:38:59.653Z,5.92
2023-02-25T00:41:33.392Z,5.92
2023-02-25T00:44:06.388Z,5.93
2023-02-25T00:46:38.876Z,5.96
2023-02-25T00:49:16.737Z,5.97
2023-02-25T00:51:54.191Z,5.93
2023-02-25T00:54:27.329Z,5.94
2023-02-25T00:57:00.315Z,5.92
2023-02-25T00:59:34.032Z,5.93
2023-02-25T01:02:06.784Z,5.93
2023-02-25T01:04:39.760Z,5.95
2023-02-25T01:07:13.341Z,5.99
2023-02-25T01:09:45.868Z,6.01
2023-02-25T01:12:18.845Z,6.03
2023-02-25T01:14:52.042Z,5.98
2023-02-25T01:17:24.791Z,5.90
2023-02-25T01:19:57.955Z,5.75
2023-02-25T01:22:31.809Z,5.70
2023-02-25T01:25:06.567Z,5.70
2023-02-25T01:27:43.764Z,5.69
2023-02-25T01:30:18.974Z,5.69
2023-02-25T01:32:51.633Z,5.65
2023-02-25T01:35:24.409Z,5.66
2023-02-25T01:37:58.181Z,5.63
2023-02-25T01:40:32.425Z,5.65
2023-02-25T01:43:08.102Z,5.61
2023-02-25T01:45:44.459Z,5.61
2023-02-25T01:48:20.252Z,5.61
2023-02-25T01:50:56.063Z,5.59
2023-02-25T01:53:32.602Z,5.59
2023-02-25T01:56:06.802Z,5.54
2023-02-25T01:58:40.183Z,5.56
2023-02-25T02:01:16.836Z,5.56
2023-02-25T02:03:52.142Z,5.57
2023-02-25T02:06:30.554Z,5.54
2023-02-25T02:09:04.226Z,5.50
2023-02-25T02:11:35.377Z,5.49
2023-02-25T02:14:11.852Z,5.41
2023-02-25T02:17:15.562Z,5.41
2023-02-25T02:20:10.332Z,5.36
2023-02-25T02:22:51.315Z,5.25
2023-02-25T02:25:51.759Z,5.25
2023-02-25T02:28:54.694Z,5.22
2023-02-25T02:31:38.705Z,5.21
2023-02-25T02:34:17.064Z,5.21
2023-02-25T02:37:01.501Z,5.09
2023-02-25T02:39:45.323Z,5.06
2023-02-25T02:42:27.821Z,5.01
2023-02-25T02:45:04.591Z,4.90
2023-02-25T02:47:39.991Z,4.88
2023-02-25T02:50:17.557Z,4.84
2023-02-25T02:52:54.207Z,4.82
2023-02-25T02:55:33.130Z,4.80
2023-02-25T02:58:09.834Z,4.77
2023-02-25T03:00:45.978Z,4.73
2023-02-25T03:03:23.156Z,4.70
2023-02-25T03:05:57.500Z,4.60
2023-02-25T03:08:34.681Z,4.57
2023-02-25T03:11:09.613Z,4.54
2023-02-25T03:13:43.069Z,4.49
2023-02-25T03:16:21.811Z,4.46
2023-02-25T03:18:59.617Z,4.46
2023-02-25T03:21:39.016Z,4.43
2023-02-25T03:24:22.596Z,4.44
2023-02-25T03:26:56.769Z,4.44
2023-02-25T03:29:30.275Z,4.46
2023-02-25T03:32:07.900Z,4.46
2023-02-25T03:34:44.359Z,4.46
2023-02-25T03:37:25.757Z,4.46
2023-02-25T03:40:03.486Z,4.43
2023-02-25T03:42:37.598Z,4.45
2023-02-25T03:45:13.688Z,4.43
2023-02-25T03:47:47.408Z,4.42
2023-02-25T03:50:21.863Z,4.35
2023-02-25T03:52:58.884Z,4.35
2023-02-25T03:56:12.824Z,4.37
2023-02-25T03:58:48.952Z,4.34
2023-02-25T04:01:28.460Z,4.35
2023-02-25T04:04:00.998Z,4.33
2023-02-25T04:06:34.255Z,4.30
2023-02-25T04:09:08.167Z,4.24
2023-02-25T04:11:41.164Z,4.20
2023-02-25T04:14:16.037Z,4.16
2023-02-25T04:16:48.539Z,4.15
2023-02-25T04:19:21.406Z,4.14
2023-02-25T04:21:56.071Z,4.08
2023-02-25T04:24:31.327Z,4.03
2023-02-25T04:27:03.823Z,4.02
2023-02-25T04:29:38.608Z,3.97
2023-02-25T04:32:13.508Z,3.93
2023-02-25T04:34:46.304Z,3.91
2023-02-25T04:37:18.879Z,3.76
2023-02-25T04:39:51.536Z,3.67
2023-02-25T04:42:26.796Z,3.66
2023-02-25T04:45:00.194Z,3.58
2023-02-25T04:47:32.678Z,3.54
2023-02-25T04:50:05.958Z,3.47
2023-02-25T04:52:38.618Z,3.46
2023-02-25T04:55:15.378Z,3.42
2023-02-25T04:57:50.023Z,3.35
2023-02-25T05:00:24.699Z,3.30
2023-02-25T05:02:58.878Z,3.28
2023-02-25T05:05:31.523Z,3.24
2023-02-25T05:08:04.666Z,3.25
2023-02-25T05:10:37.444Z,3.17
2023-02-25T05:13:10.318Z,3.13
2023-02-25T05:15:43.049Z,3.07
2023-02-25T05:18:16.150Z,3.07
2023-02-25T05:20:50.572Z,3.04
2023-02-25T05:23:23.339Z,3.00
2023-02-25T05:25:58.430Z,2.98
2023-02-25T05:28:31.083Z,2.97
2023-02-25T05:31:06.187Z,2.97
2023-02-25T05:33:41.610Z,2.94
2023-02-25T05:36:20.083Z,2.93
2023-02-25T05:38:54.654Z,2.87
2023-02-25T05:41:28.126Z,2.82
2023-02-25T05:44:01.529Z,2.89
2023-02-25T05:46:33.315Z,2.86
2023-02-25T05:49:06.147Z,2.81
2023-02-25T05:51:38.872Z,2.81
2023-02-25T05:54:11.431Z,2.81
2023-02-25T05:56:45.852Z,2.79
2023-02-25T05:59:19.227Z,2.81
2023-02-25T06:01:54.487Z,2.81
2023-02-25T06:04:28.675Z,2.82
2023-02-25T06:07:03.946Z,2.82
2023-02-25T06:09:36.866Z,2.79
2023-02-25T06:12:10.283Z,2.79
2023-02-25T06:14:43.419Z,2.74
2023-02-25T06:17:15.993Z,2.71
2023-02-25T06:19:48.887Z,2.66
2023-02-25T06:22:21.998Z,2.68
2023-02-25T06:24:57.594Z,2.65
2023-02-25T06:27:31.867Z,2.62
2023-02-25T06:30:04.690Z,2.62
2023-02-25T06:32:37.684Z,2.58
2023-02-25T06:35:11.869Z,2.58
2023-02-25T06:37:48.247Z,2.55
2023-02-25T06:40:21.810Z,2.56
2023-02-25T06:42:56.408Z,2.56
2023-02-25T06:45:29.798Z,2.57
2023-02-25T06:48:02.681Z,2.65
2023-02-25T06:50:35.597Z,2.71
2023-02-25T06:53:09.884Z,2.81
2023-02-25T06:55:43.887Z,2.82
2023-02-25T06:58:18.341Z,3.04
2023-02-25T07:00:54.218Z,3.24
2023-02-25T07:03:28.929Z,3.38
2023-02-25T07:06:01.748Z,3.29
2023-02-25T07:08:37.203Z,3.26
2023-02-25T07:11:29.643Z,3.38
2023-02-25T07:14:02.513Z,3.55
2023-02-25T07:16:36.728Z,3.73
2023-02-25T07:19:10.092Z,3.85
2023-02-25T07:21:42.925Z,4.02
2023-02-25T07:24:19.345Z,4.14
2023-02-25T07:26:52.607Z,4.22
2023-02-25T07:29:28.205Z,4.40
2023-02-25T07:32:02.012Z,4.54
2023-02-25T07:34:32.997Z,4.76
2023-02-25T07:37:06.165Z,4.85
2023-02-25T07:39:45.719Z,4.74
2023-02-25T07:42:19.964Z,4.58
2023-02-25T07:44:54.096Z,4.45
2023-02-25T07:47:26.967Z,4.41
2023-02-25T07:49:59.909Z,4.28
2023-02-25T07:52:33.186Z,4.17
2023-02-25T07:55:06.427Z,4.13
2023-02-25T07:57:39.469Z,4.08
2023-02-25T08:00:16.512Z,3.98
2023-02-25T08:02:49.216Z,3.96
2023-02-25T08:05:22.460Z,3.90
2023-02-25T08:07:55.431Z,3.86
2023-02-25T08:10:28.297Z,3.84
2023-02-25T08:13:01.532Z,3.76
2023-02-25T08:15:37.219Z,3.78
2023-02-25T08:18:10.263Z,3.91
2023-02-25T08:20:47.052Z,3.90
2023-02-25T08:23:20.144Z,3.87
2023-02-25T08:25:56.901Z,3.85
2023-02-25T08:28:34.878Z,3.93
2023-02-25T08:31:12.553Z,4.25
2023-02-25T08:33:49.861Z,4.53
2023-02-25T08:36:27.133Z,4.58
2023-02-25T08:39:00.696Z,4.41
2023-02-25T08:41:34.094Z,4.33
2023-02-25T08:44:07.270Z,4.41
2023-02-25T08:46:41.279Z,4.43
2023-02-25T08:49:15.101Z,4.40
2023-02-25T08:51:53.419Z,4.28
2023-02-25T08:54:26.238Z,4.07
2023-02-25T08:57:00.998Z,3.91
2023-02-25T08:59:36.233Z,3.68
2023-02-25T09:02:15.458Z,3.68
2023-02-25T09:04:48.501Z,3.73
2023-02-25T09:07:22.507Z,3.76
2023-02-25T09:09:55.544Z,3.72
2023-02-25T09:12:28.446Z,3.77
2023-02-25T09:15:01.397Z,3.75
2023-02-25T09:17:34.566Z,3.83
2023-02-25T09:20:09.868Z,3.89
2023-02-25T09:22:43.776Z,3.87
2023-02-25T09:25:14.609Z,3.86
2023-02-25T09:27:47.268Z,3.76
2023-02-25T09:30:22.008Z,3.87
2023-02-25T09:32:55.021Z,3.96
2023-02-25T09:35:30.556Z,3.88
2023-02-25T09:38:03.192Z,3.84
2023-02-25T09:40:36.539Z,3.89
2023-02-25T09:43:22.083Z,3.83
2023-02-25T09:46:11.479Z,4.04
2023-02-25T09:48:55.010Z,4.17
2023-02-25T09:51:34.596Z,4.28
2023-02-25T09:54:17.990Z,4.45
2023-02-25T09:56:51.623Z,4.84
2023-02-25T09:59:29.564Z,4.97
2023-02-25T10:02:15.163Z,4.93
2023-02-25T10:05:01.904Z,4.83
2023-02-25T10:07:57.032Z,4.92
2023-02-25T10:10:38.915Z,4.93
2023-02-25T10:13:26.942Z,4.91
2023-02-25T10:16:11.951Z,5.11
2023-02-25T10:19:01.947Z,5.31
2023-02-25T10:21:56.310Z,5.45
2023-02-25T10:24:32.210Z,5.46
2023-02-25T10:27:12.578Z,5.28
2023-02-25T10:29:50.933Z,5.40
2023-02-25T10:32:28.209Z,5.44
2023-02-25T10:35:13.951Z,5.30
2023-02-25T10:37:47.314Z,5.34
2023-02-25T10:40:22.178Z,5.31
2023-02-25T10:42:56.444Z,5.11
2023-02-25T10:45:32.561Z,5.16
2023-02-25T10:48:15.540Z,5.21
2023-02-25T10:51:07.445Z,5.13
2023-02-25T10:53:40.911Z,5.38
2023-02-25T10:56:14.962Z,5.58
2023-02-25T10:59:01.115Z,5.62
2023-02-25T11:01:40.898Z,5.85
2023-02-25T11:04:17.182Z,5.81
2023-02-25T11:06:50.434Z,5.88
2023-02-25T11:09:40.637Z,6.11
2023-02-25T11:12:21.628Z,6.02
2023-02-25T11:14:55.354Z,5.82
2023-02-25T11:17:30.891Z,5.65
2023-02-25T11:20:07.123Z,5.45
2023-02-25T11:22:45.220Z,5.31
2023-02-25T11:25:22.564Z,5.16
2023-02-25T11:27:59.083Z,5.04
2023-02-25T11:30:36.024Z,5.27
2023-02-25T11:33:20.785Z,5.50
2023-02-25T11:36:00.677Z,5.90
2023-02-25T11:38:37.045Z,6.04
2023-02-25T11:41:20.546Z,6.21
2023-02-25T11:43:54.615Z,6.33
2023-02-25T11:46:33.044Z,6.46
2023-02-25T11:49:15.164Z,6.49
2023-02-25T11:51:54.240Z,6.34
2023-02-25T11:54:37.219Z,6.10
2023-02-25T11:57:16.293Z,5.91
2023-02-25T12:00:04.819Z,5.76
2023-02-25T12:02:57.958Z,5.53
2023-02-25T12:05:52.370Z,5.22
2023-02-25T12:08:52.629Z,4.83
2023-02-25T12:12:03.013Z,4.61
2023-02-25T12:15:12.488Z,4.33
2023-02-25T12:18:26.467Z,3.98
2023-02-25T12:22:05.946Z,3.91
2023-02-25T12:25:06.511Z,3.88
2023-02-25T12:28:21.740Z,4.18
2023-02-25T12:31:39.904Z,4.44
2023-02-25T12:34:27.477Z,4.30
2023-02-25T12:37:20.858Z,4.17
2023-02-25T12:40:05.336Z,4.12
2023-02-25T12:43:00.968Z,3.96
2023-02-25T12:45:58.685Z,3.83
2023-02-25T12:49:01.250Z,3.67
2023-02-25T12:51:57.226Z,3.49
2023-02-25T12:54:49.574Z,3.56
2023-02-25T12:57:40.631Z,3.82
2023-02-25T13:00:26.360Z,4.02
2023-02-25T13:03:21.550Z,4.19
2023-02-25T13:06:16.927Z,4.29
2023-02-25T13:09:03.944Z,4.27
2023-02-25T13:12:09.937Z,4.21
2023-02-25T13:14:51.248Z,4.24
2023-02-25T13:17:37.376Z,4.20
2023-02-25T13:20:49.051Z,4.13
2023-02-25T13:23:46.093Z,3.67
2023-02-25T13:26:39.534Z,3.50
2023-02-25T13:29:28.906Z,3.40
2023-02-25T13:32:27.303Z,3.35
2023-02-25T13:35:18.319Z,3.60
2023-02-25T13:37:58.651Z,3.71
2023-02-25T13:40:49.272Z,3.89
2023-02-25T13:43:45.691Z,3.90
2023-02-25T13:46:38.550Z,3.98
2023-02-25T13:49:34.799Z,4.11
2023-02-25T13:52:19.370Z,4.02
2023-02-25T13:55:34.681Z,3.87
2023-02-25T13:58:46.112Z,3.85
2023-02-25T14:01:37.263Z,3.96
2023-02-25T14:04:41.329Z,4.07
2023-02-25T14:07:32.779Z,4.10
2023-02-25T14:10:26.981Z,4.07
2023-02-25T14:13:13.231Z,3.94
2023-02-25T14:16:00.721Z,3.86
2023-02-25T14:19:09.509Z,3.75
2023-02-25T14:22:20.502Z,3.68
2023-02-25T14:25:08.743Z,3.69
2023-02-25T14:27:52.643Z,3.69
2023-02-25T14:30:31.627Z,3.74
2023-02-25T14:33:22.711Z,3.84
2023-02-25T14:36:09.312Z,4.05
2023-02-25T14:39:02.881Z,4.17
2023-02-25T14:41:43.539Z,4.26
2023-02-25T14:44:21.183Z,4.31
2023-02-25T14:47:01.499Z,4.37
2023-02-25T14:49:41.691Z,4.48
2023-02-25T14:52:38.596Z,4.41
2023-02-25T14:55:40.130Z,4.27
2023-02-25T14:58:34.549Z,4.20
2023-02-25T15:01:09.322Z,4.19
2023-02-25T15:04:00.741Z,4.08
2023-02-25T15:07:08.407Z,3.95
2023-02-25T15:10:19.416Z,3.86
2023-02-25T15:13:17.222Z,3.78
2023-02-25T15:16:31.647Z,3.71
2023-02-25T15:19:36.577Z,3.62
2023-02-25T15:22:30.886Z,3.59
2023-02-25T15:25:33.724Z,3.58
2023-02-25T15:28:27.146Z,3.54
2023-02-25T15:31:33.473Z,3.46
2023-02-25T15:34:40.020Z,3.32
2023-02-25T15:37:29.816Z,3.27
2023-02-25T15:40:29.115Z,3.19
2023-02-25T15:43:25.790Z,3.18
2023-02-25T15:49:36.025Z,3.24
2023-02-25T15:52:13.177Z,3.11
2023-02-25T15:54:56.359Z,3.04
2023-02-25T15:57:42.726Z,3.04
2023-02-25T16:00:46.508Z,2.97
2023-02-25T16:03:35.695Z,2.88
2023-02-25T16:06:16.290Z,2.82
2023-02-25T16:08:57.004Z,2.83
2023-02-25T16:11:40.239Z,2.83
2023-02-25T16:14:21.466Z,2.80
2023-02-25T16:16:58.919Z,2.78
2023-02-25T16:19:36.459Z,2.78
2023-02-25T16:22:16.742Z,2.64
2023-02-25T16:24:53.391Z,2.63
2023-02-25T16:27:45.437Z,2.63
2023-02-25T16:30:25.889Z,2.65
2023-02-25T16:33:11.369Z,2.63
2023-02-25T16:35:57.662Z,2.65
2023-02-25T16:38:45.341Z,2.66
2023-02-25T16:41:22.368Z,2.60
2023-02-25T16:44:01.879Z,2.57
2023-02-25T16:46:39.887Z,2.52
2023-02-25T16:49:22.923Z,2.50
2023-02-25T16:51:58.678Z,2.51
2023-02-25T16:54:36.692Z,2.46
2023-02-25T16:57:20.827Z,2.44
2023-02-25T16:59:53.455Z,2.48
2023-02-25T17:02:31.641Z,2.42
2023-02-25T17:05:08.265Z,2.37
2023-02-25T17:07:42.249Z,2.36
2023-02-25T17:10:31.128Z,2.36
2023-02-25T17:13:08.375Z,2.31
2023-02-25T17:15:43.048Z,2.29
2023-02-25T17:18:21.387Z,2.32
2023-02-25T17:21:01.846Z,2.30
2023-02-25T17:23:44.787Z,2.25
2023-02-25T17:26:18.634Z,2.22
2023-02-25T17:28:55.775Z,2.22
2023-02-25T17:31:30.903Z,2.24
2023-02-25T17:34:05.840Z,2.31
2023-02-25T17:36:43.007Z,2.39
2023-02-25T17:39:20.894Z,2.39
2023-02-25T17:41:55.084Z,2.39
2023-02-25T17:44:47.593Z,2.27
2023-02-25T17:47:28.023Z,2.27
2023-02-25T17:50:17.078Z,2.29
2023-02-25T17:52:52.489Z,2.32
2023-02-25T17:55:37.516Z,2.32
2023-02-25T17:58:23.222Z,2.34
2023-02-25T18:01:06.240Z,2.34
2023-02-25T18:03:48.948Z,2.30
2023-02-25T18:06:35.656Z,2.25
2023-02-25T18:09:29.929Z,2.25
2023-02-25T18:12:09.555Z,2.23
2023-02-25T18:14:46.139Z,2.26
2023-02-25T18:17:26.227Z,2.25
2023-02-25T18:20:00.853Z,2.23
2023-02-25T18:22:40.599Z,2.21
2023-02-25T18:25:40.205Z,2.16
2023-02-25T18:28:22.283Z,2.04
2023-02-25T18:31:04.122Z,2.04
2023-02-25T18:33:39.482Z,2.01
2023-02-25T18:36:26.600Z,1.98
2023-02-25T18:39:06.144Z,2.00
2023-02-25T18:41:41.688Z,1.99
2023-02-25T18:44:18.458Z,1.99
2023-02-25T18:46:55.785Z,2.00
2023-02-25T18:49:32.549Z,2.00
2023-02-25T18:52:07.252Z,1.92
2023-02-25T18:54:41.110Z,1.86
2023-02-25T18:57:23.335Z,1.81
2023-02-25T18:59:58.493Z,1.84
2023-02-25T19:02:37.589Z,1.81
2023-02-25T19:05:11.285Z,1.87
2023-02-25T19:07:45.080Z,1.85
2023-02-25T19:10:23.932Z,1.84
2023-02-25T19:13:07.015Z,1.81
2023-02-25T19:15:41.847Z,1.81
2023-02-25T19:18:18.712Z,1.86
2023-02-25T19:20:52.741Z,1.81
2023-02-25T19:23:23.725Z,1.81
2023-02-25T19:26:01.054Z,1.80
2023-02-25T19:28:37.312Z,1.83
2023-02-25T19:31:19.070Z,1.85
2023-02-25T19:33:58.074Z,1.81
2023-02-25T19:36:34.292Z,1.82
2023-02-25T19:39:13.621Z,1.81
2023-02-25T19:41:49.531Z,1.80
2023-02-25T19:44:26.297Z,1.77
2023-02-25T19:47:04.511Z,1.77
2023-02-25T19:49:37.157Z,1.75
2023-02-25T19:52:10.343Z,1.74
2023-02-25T19:54:43.382Z,1.71
2023-02-25T19:57:16.985Z,1.72
2023-02-25T19:59:47.733Z,1.67
2023-02-25T20:02:21.411Z,1.58
2023-02-25T20:04:59.275Z,1.58
2023-02-25T20:07:33.485Z,1.58
2023-02-25T20:10:06.962Z,1.55
2023-02-25T20:12:40.376Z,1.53
2023-02-25T20:15:15.239Z,1.48
2023-02-25T20:17:49.739Z,1.44
2023-02-25T20:20:24.570Z,1.46
2023-02-25T20:22:57.901Z,1.44
2023-02-25T20:25:33.006Z,1.46
2023-02-25T20:28:07.352Z,1.41
2023-02-25T20:30:42.637Z,1.42
2023-02-25T20:33:18.771Z,1.38
2023-02-25T20:35:52.243Z,1.33
2023-02-25T20:38:34.100Z,1.29
2023-02-25T20:41:08.171Z,1.27
2023-02-25T20:43:41.550Z,1.34
2023-02-25T20:46:22.726Z,1.35
2023-02-25T20:48:56.453Z,1.38
2023-02-25T20:51:30.110Z,1.35
2023-02-25T20:54:01.337Z,1.37
2023-02-25T20:56:35.024Z,1.30
2023-02-25T20:59:08.035Z,1.26
2023-02-25T21:01:40.995Z,1.21
2023-02-25T21:04:15.707Z,1.25
2023-02-25T21:06:50.097Z,1.28
2023-02-25T21:09:22.756Z,1.26
2023-02-25T21:12:00.717Z,1.33
2023-02-25T21:14:33.867Z,1.33
2023-02-25T21:17:09.831Z,1.35
2023-02-25T21:19:42.956Z,1.32
2023-02-25T21:22:15.758Z,1.32
2023-02-25T21:24:48.751Z,1.33
2023-02-25T21:27:23.007Z,1.35
2023-02-25T21:29:58.656Z,1.32
2023-02-25T21:32:31.306Z,1.29
2023-02-25T21:35:04.455Z,1.32
2023-02-25T21:37:38.747Z,1.32
2023-02-25T21:40:15.068Z,1.28
2023-02-25T21:42:47.604Z,1.22
2023-02-25T21:45:20.615Z,1.24
2023-02-25T21:47:55.868Z,1.23
2023-02-25T21:50:29.397Z,1.27
2023-02-25T21:53:02.217Z,1.28
2023-02-25T21:55:35.537Z,1.29
2023-02-25T21:58:08.598Z,1.30
2023-02-25T22:00:42.926Z,1.33
2023-02-25T22:03:15.885Z,1.33
2023-02-25T22:05:50.181Z,1.31
2023-02-25T22:08:22.749Z,1.31
2023-02-25T22:10:55.709Z,1.33
2023-02-25T22:13:33.658Z,1.35
2023-02-25T22:16:07.321Z,1.34
2023-02-25T22:18:38.068Z,1.37
2023-02-25T22:21:16.500Z,1.35
2023-02-25T22:23:50.212Z,1.34
2023-02-25T22:26:25.684Z,1.37
2023-02-25T22:29:00.881Z,1.38
2023-02-25T22:31:34.622Z,1.36
2023-02-25T22:34:08.502Z,1.41
2023-02-25T22:36:41.395Z,1.33
2023-02-25T22:39:14.243Z,1.32
2023-02-25T22:41:47.034Z,1.32
2023-02-25T22:44:19.924Z,1.34
2023-02-25T22:46:52.728Z,1.33
2023-02-25T22:49:25.914Z,1.34
2023-02-25T22:51:58.877Z,1.28
2023-02-25T22:54:32.783Z,1.23
2023-02-25T22:57:05.726Z,1.26
2023-02-25T22:59:38.309Z,1.24
2023-02-25T23:02:11.012Z,1.22
2023-02-25T23:04:44.297Z,1.20
2023-02-25T23:07:17.745Z,1.20
2023-02-25T23:09:50.643Z,1.21
2023-02-25T23:12:23.694Z,1.15
2023-02-25T23:14:57.342Z,1.17
2023-02-25T23:17:30.114Z,1.14
2023-02-25T23:20:02.915Z,1.17
2023-02-25T23:22:36.061Z,1.17
2023-02-25T23:25:10.473Z,1.10
2023-02-25T23:27:43.872Z,1.15
2023-02-25T23:30:17.710Z,1.14
2023-02-25T23:32:51.072Z,1.13
2023-02-25T23:35:24.321Z,1.12
2023-02-25T23:37:57.112Z,1.08
2023-02-25T23:40:29.831Z,1.05
2023-02-25T23:43:03.071Z,1.07
2023-02-25T23:45:35.545Z,1.06
2023-02-25T23:48:09.143Z,1.08
2023-02-25T23:50:39.838Z,1.08
2023-02-25T23:53:12.928Z,1.02
2023-02-25T23:55:45.549Z,1.08
2023-02-25T23:58:18.334Z,1.08
